sensor_id;sensor_type;location;lat;lon;timestamp;pressure;altitude;pressure_sealevel;temperature;humidity
46846;BME280;33947;46.804;134.252;2022-11-20T00:02:59;101290.78;;;1.03;89.10
46846;BME280;33947;46.804;134.252;2022-11-20T00:06:06;101288.31;;;1.11;89.31
46846;BME280;33947;46.804;134.252;2022-11-20T00:09:11;101286.09;;;1.26;87.14
46846;BME280;33947;46.804;134.252;2022-11-20T00:12:15;101242.84;;;1.06;87.92
46846;BME280;33947;46.804;134.252;2022-11-20T00:15:20;101273.72;;;1.21;88.10
46846;BME280;33947;46.804;134.252;2022-11-20T00:18:25;101284.38;;;1.28;88.73
46846;BME280;33947;46.804;134.252;2022-11-20T00:21:30;101278.25;;;1.28;87.71
46846;BME280;33947;46.804;134.252;2022-11-20T00:24:34;101265.75;;;1.14;88.04
46846;BME280;33947;46.804;134.252;2022-11-20T00:27:44;101265.84;;;1.19;88.37
46846;BME280;33947;46.804;134.252;2022-11-20T00:30:49;101265.38;;;0.99;88.57
46846;BME280;33947;46.804;134.252;2022-11-20T00:33:53;101283.94;;;1.10;89.19
46846;BME280;33947;46.804;134.252;2022-11-20T00:36:58;101280.78;;;1.23;88.59
46846;BME280;33947;46.804;134.252;2022-11-20T00:40:02;101256.31;;;1.21;87.78
46846;BME280;33947;46.804;134.252;2022-11-20T00:43:07;101265.34;;;1.36;87.76
46846;BME280;33947;46.804;134.252;2022-11-20T00:46:16;101258.53;;;1.42;86.38
46846;BME280;33947;46.804;134.252;2022-11-20T00:49:21;101245.75;;;1.58;86.42
46846;BME280;33947;46.804;134.252;2022-11-20T00:52:26;101239.66;;;1.59;85.69
46846;BME280;33947;46.804;134.252;2022-11-20T00:55:30;101184.38;;;1.45;85.54
46846;BME280;33947;46.804;134.252;2022-11-20T00:58:37;101194.34;;;1.62;85.68
46846;BME280;33947;46.804;134.252;2022-11-20T01:01:42;101211.28;;;1.38;86.77
46846;BME280;33947;46.804;134.252;2022-11-20T01:04:47;101221.81;;;1.39;88.08
46846;BME280;33947;46.804;134.252;2022-11-20T01:07:59;101232.47;;;1.49;87.71
46846;BME280;33947;46.804;134.252;2022-11-20T01:11:12;101242.13;;;1.51;87.34
46846;BME280;33947;46.804;134.252;2022-11-20T01:14:22;101236.06;;;1.52;86.34
46846;BME280;33947;46.804;134.252;2022-11-20T01:17:27;101235.31;;;1.59;86.96
46846;BME280;33947;46.804;134.252;2022-11-20T01:20:35;101253.31;;;1.85;85.83
46846;BME280;33947;46.804;134.252;2022-11-20T01:23:42;101241.44;;;2.05;83.66
46846;BME280;33947;46.804;134.252;2022-11-20T01:26:48;101198.84;;;1.69;84.61
46846;BME280;33947;46.804;134.252;2022-11-20T01:29:53;101231.47;;;1.85;84.87
46846;BME280;33947;46.804;134.252;2022-11-20T01:33:04;101189.91;;;1.57;85.03
46846;BME280;33947;46.804;134.252;2022-11-20T01:36:10;101219.00;;;1.73;85.77
46846;BME280;33947;46.804;134.252;2022-11-20T01:39:21;101226.34;;;1.90;84.55
46846;BME280;33947;46.804;134.252;2022-11-20T01:42:27;101221.00;;;1.86;84.53
46846;BME280;33947;46.804;134.252;2022-11-20T01:46:17;101210.47;;;1.82;84.89
46846;BME280;33947;46.804;134.252;2022-11-20T01:49:36;101213.41;;;1.99;83.96
46846;BME280;33947;46.804;134.252;2022-11-20T01:52:57;101206.31;;;1.93;84.56
46846;BME280;33947;46.804;134.252;2022-11-20T01:56:10;101202.63;;;1.83;84.41
46846;BME280;33947;46.804;134.252;2022-11-20T01:59:18;101216.56;;;1.81;85.09
46846;BME280;33947;46.804;134.252;2022-11-20T02:02:24;101214.00;;;1.84;84.66
46846;BME280;33947;46.804;134.252;2022-11-20T02:09:01;101194.34;;;2.08;84.21
46846;BME280;33947;46.804;134.252;2022-11-20T02:12:11;101177.59;;;1.98;84.25
46846;BME280;33947;46.804;134.252;2022-11-20T02:15:59;101176.72;;;1.99;85.16
46846;BME280;33947;46.804;134.252;2022-11-20T02:19:08;101191.91;;;2.19;84.52
46846;BME280;33947;46.804;134.252;2022-11-20T02:22:34;101171.84;;;2.19;84.78
46846;BME280;33947;46.804;134.252;2022-11-20T02:25:49;101167.34;;;2.12;84.87
46846;BME280;33947;46.804;134.252;2022-11-20T02:28:56;101143.78;;;2.13;84.87
46846;BME280;33947;46.804;134.252;2022-11-20T02:32:02;101160.75;;;2.34;85.48
46846;BME280;33947;46.804;134.252;2022-11-20T02:38:24;101154.84;;;2.48;84.00
46846;BME280;33947;46.804;134.252;2022-11-20T02:41:32;101134.63;;;2.42;84.60
46846;BME280;33947;46.804;134.252;2022-11-20T02:44:36;101153.22;;;2.54;83.48
46846;BME280;33947;46.804;134.252;2022-11-20T02:47:41;101170.94;;;2.71;83.01
46846;BME280;33947;46.804;134.252;2022-11-20T02:50:45;101141.81;;;2.52;83.87
46846;BME280;33947;46.804;134.252;2022-11-20T02:53:50;101159.44;;;2.63;83.16
46846;BME280;33947;46.804;134.252;2022-11-20T02:56:54;101162.16;;;2.67;83.60
46846;BME280;33947;46.804;134.252;2022-11-20T02:59:58;101151.72;;;2.70;83.07
46846;BME280;33947;46.804;134.252;2022-11-20T03:03:05;101138.81;;;2.84;83.14
46846;BME280;33947;46.804;134.252;2022-11-20T03:06:12;101125.34;;;2.64;83.23
46846;BME280;33947;46.804;134.252;2022-11-20T03:09:16;101152.69;;;2.80;83.93
46846;BME280;33947;46.804;134.252;2022-11-20T03:12:21;101158.94;;;2.87;84.76
46846;BME280;33947;46.804;134.252;2022-11-20T03:15:25;101149.53;;;3.03;83.84
46846;BME280;33947;46.804;134.252;2022-11-20T03:18:30;101137.03;;;2.85;84.44
46846;BME280;33947;46.804;134.252;2022-11-20T03:21:34;101137.44;;;3.14;82.92
46846;BME280;33947;46.804;134.252;2022-11-20T03:24:39;101137.44;;;3.14;82.35
46846;BME280;33947;46.804;134.252;2022-11-20T03:27:43;101133.13;;;3.18;82.23
46846;BME280;33947;46.804;134.252;2022-11-20T03:30:48;101104.81;;;2.94;82.71
46846;BME280;33947;46.804;134.252;2022-11-20T03:33:52;101132.25;;;3.21;83.58
46846;BME280;33947;46.804;134.252;2022-11-20T03:36:56;101126.97;;;3.17;83.49
46846;BME280;33947;46.804;134.252;2022-11-20T03:40:01;101130.38;;;3.10;84.12
46846;BME280;33947;46.804;134.252;2022-11-20T03:43:05;101128.13;;;3.40;83.26
46846;BME280;33947;46.804;134.252;2022-11-20T03:46:10;101112.44;;;3.43;82.56
46846;BME280;33947;46.804;134.252;2022-11-20T03:49:15;101112.44;;;3.44;82.67
46846;BME280;33947;46.804;134.252;2022-11-20T03:52:19;101115.19;;;3.55;82.01
46846;BME280;33947;46.804;134.252;2022-11-20T03:55:23;101117.81;;;3.57;82.19
46846;BME280;33947;46.804;134.252;2022-11-20T03:58:28;101099.09;;;3.26;82.69
46846;BME280;33947;46.804;134.252;2022-11-20T04:01:35;101126.47;;;3.46;82.26
46846;BME280;33947;46.804;134.252;2022-11-20T04:04:41;101118.41;;;3.32;82.99
46846;BME280;33947;46.804;134.252;2022-11-20T04:07:45;101119.44;;;3.44;82.99
46846;BME280;33947;46.804;134.252;2022-11-20T04:10:49;101110.47;;;3.25;82.89
46846;BME280;33947;46.804;134.252;2022-11-20T04:13:58;101115.13;;;3.49;81.80
46846;BME280;33947;46.804;134.252;2022-11-20T04:17:03;101117.69;;;3.44;82.25
46846;BME280;33947;46.804;134.252;2022-11-20T04:20:08;101109.81;;;3.44;82.74
46846;BME280;33947;46.804;134.252;2022-11-20T04:23:13;101119.38;;;3.39;82.90
46846;BME280;33947;46.804;134.252;2022-11-20T04:26:17;101107.97;;;3.37;82.69
46846;BME280;33947;46.804;134.252;2022-11-20T04:29:22;101096.56;;;3.37;83.39
46846;BME280;33947;46.804;134.252;2022-11-20T04:32:26;101116.84;;;3.47;83.37
46846;BME280;33947;46.804;134.252;2022-11-20T04:35:34;101114.25;;;3.50;82.67
46846;BME280;33947;46.804;134.252;2022-11-20T04:38:40;101124.81;;;3.58;83.08
46846;BME280;33947;46.804;134.252;2022-11-20T04:41:45;101121.16;;;3.42;82.66
46846;BME280;33947;46.804;134.252;2022-11-20T04:44:49;101127.38;;;3.52;83.79
46846;BME280;33947;46.804;134.252;2022-11-20T04:47:54;101116.84;;;3.48;84.24
46846;BME280;33947;46.804;134.252;2022-11-20T04:51:03;101117.59;;;3.37;84.23
46846;BME280;33947;46.804;134.252;2022-11-20T04:54:08;101113.28;;;3.43;84.57
46846;BME280;33947;46.804;134.252;2022-11-20T04:57:14;101115.84;;;3.39;84.43
46846;BME280;33947;46.804;134.252;2022-11-20T05:00:19;101117.75;;;3.49;83.56
46846;BME280;33947;46.804;134.252;2022-11-20T05:03:23;101109.72;;;3.38;83.62
46846;BME280;33947;46.804;134.252;2022-11-20T05:06:28;101115.09;;;3.47;83.23
46846;BME280;33947;46.804;134.252;2022-11-20T05:09:32;101104.44;;;3.35;83.49
46846;BME280;33947;46.804;134.252;2022-11-20T05:12:37;101109.88;;;3.51;83.27
46846;BME280;33947;46.804;134.252;2022-11-20T05:15:41;101109.00;;;3.52;83.68
46846;BME280;33947;46.804;134.252;2022-11-20T05:18:46;101109.94;;;3.57;83.25
46846;BME280;33947;46.804;134.252;2022-11-20T05:21:50;101111.78;;;3.66;83.41
46846;BME280;33947;46.804;134.252;2022-11-20T05:24:55;101117.06;;;3.67;83.82
46846;BME280;33947;46.804;134.252;2022-11-20T05:27:59;101106.50;;;3.62;84.08
46846;BME280;33947;46.804;134.252;2022-11-20T05:31:09;101103.97;;;3.70;84.23
46846;BME280;33947;46.804;134.252;2022-11-20T05:34:13;101108.44;;;3.79;83.73
46846;BME280;33947;46.804;134.252;2022-11-20T05:37:18;101100.44;;;3.70;84.54
46846;BME280;33947;46.804;134.252;2022-11-20T05:40:23;101117.22;;;3.81;84.13
46846;BME280;33947;46.804;134.252;2022-11-20T05:43:27;101093.50;;;3.76;83.70
46846;BME280;33947;46.804;134.252;2022-11-20T05:46:32;101105.81;;;3.79;83.66
46846;BME280;33947;46.804;134.252;2022-11-20T05:49:36;101111.13;;;3.85;84.09
46846;BME280;33947;46.804;134.252;2022-11-20T05:52:41;101101.38;;;3.73;83.98
46846;BME280;33947;46.804;134.252;2022-11-20T05:55:46;101100.56;;;3.81;83.47
46846;BME280;33947;46.804;134.252;2022-11-20T05:58:50;101104.84;;;3.69;83.50
46846;BME280;33947;46.804;134.252;2022-11-20T06:01:55;101096.13;;;3.73;83.55
46846;BME280;33947;46.804;134.252;2022-11-20T06:04:59;101099.72;;;3.85;83.19
46846;BME280;33947;46.804;134.252;2022-11-20T06:08:05;101087.06;;;3.46;83.74
46846;BME280;33947;46.804;134.252;2022-11-20T06:11:11;101094.81;;;3.36;84.81
46846;BME280;33947;46.804;134.252;2022-11-20T06:14:16;101089.50;;;3.28;83.94
46846;BME280;33947;46.804;134.252;2022-11-20T06:17:20;101096.63;;;3.41;84.29
46846;BME280;33947;46.804;134.252;2022-11-20T06:20:25;101108.06;;;3.46;83.38
46846;BME280;33947;46.804;134.252;2022-11-20T06:23:31;101109.88;;;3.49;83.70
46846;BME280;33947;46.804;134.252;2022-11-20T06:26:36;101064.78;;;3.12;83.27
46846;BME280;33947;46.804;134.252;2022-11-20T06:29:40;101100.25;;;3.53;82.80
46846;BME280;33947;46.804;134.252;2022-11-20T06:32:45;101098.34;;;3.36;82.91
46846;BME280;33947;46.804;134.252;2022-11-20T06:35:50;101070.06;;;3.16;81.96
46846;BME280;33947;46.804;134.252;2022-11-20T06:39:01;101100.81;;;3.25;82.40
46846;BME280;33947;46.804;134.252;2022-11-20T06:42:06;101109.34;;;3.07;82.27
46846;BME280;33947;46.804;134.252;2022-11-20T06:45:14;101086.50;;;3.00;82.59
46846;BME280;33947;46.804;134.252;2022-11-20T06:48:18;101071.59;;;2.97;82.87
46846;BME280;33947;46.804;134.252;2022-11-20T06:51:24;101103.19;;;3.03;83.07
46846;BME280;33947;46.804;134.252;2022-11-20T06:54:28;101097.78;;;2.94;83.03
46846;BME280;33947;46.804;134.252;2022-11-20T06:57:32;101099.47;;;2.87;83.03
46846;BME280;33947;46.804;134.252;2022-11-20T07:00:37;101091.41;;;2.75;83.26
46846;BME280;33947;46.804;134.252;2022-11-20T07:03:42;101088.69;;;2.67;83.29
46846;BME280;33947;46.804;134.252;2022-11-20T07:06:48;101109.66;;;2.66;83.39
46846;BME280;33947;46.804;134.252;2022-11-20T07:09:52;101103.47;;;2.60;83.45
46846;BME280;33947;46.804;134.252;2022-11-20T07:12:56;101108.72;;;2.62;84.17
46846;BME280;33947;46.804;134.252;2022-11-20T07:16:02;101116.59;;;2.62;83.74
46846;BME280;33947;46.804;134.252;2022-11-20T07:19:07;101100.53;;;2.42;84.14
46846;BME280;33947;46.804;134.252;2022-11-20T07:22:12;101085.34;;;2.19;84.36
46846;BME280;33947;46.804;134.252;2022-11-20T07:25:16;101110.94;;;2.34;84.40
46846;BME280;33947;46.804;134.252;2022-11-20T07:28:21;101125.66;;;2.27;84.19
46846;BME280;33947;46.804;134.252;2022-11-20T07:31:25;101126.78;;;1.91;85.28
46846;BME280;33947;46.804;134.252;2022-11-20T07:34:29;101133.47;;;1.75;86.09
46846;BME280;33947;46.804;134.252;2022-11-20T07:37:37;101136.94;;;1.74;86.92
46846;BME280;33947;46.804;134.252;2022-11-20T07:40:41;101147.16;;;1.60;88.38
46846;BME280;33947;46.804;134.252;2022-11-20T07:43:45;101136.72;;;1.62;87.45
46846;BME280;33947;46.804;134.252;2022-11-20T07:46:50;101131.88;;;1.37;88.17
46846;BME280;33947;46.804;134.252;2022-11-20T07:49:54;101127.63;;;1.44;89.70
46846;BME280;33947;46.804;134.252;2022-11-20T07:53:05;101153.31;;;1.62;88.75
46846;BME280;33947;46.804;134.252;2022-11-20T07:56:11;101140.22;;;1.62;88.25
46846;BME280;33947;46.804;134.252;2022-11-20T07:59:17;101166.41;;;1.62;88.19
46846;BME280;33947;46.804;134.252;2022-11-20T08:02:22;101151.44;;;1.55;86.68
46846;BME280;33947;46.804;134.252;2022-11-20T08:05:27;101181.69;;;1.40;88.02
46846;BME280;33947;46.804;134.252;2022-11-20T08:08:31;101176.09;;;1.25;87.40
46846;BME280;33947;46.804;134.252;2022-11-20T08:11:40;101150.16;;;0.94;88.72
46846;BME280;33947;46.804;134.252;2022-11-20T08:15:04;101165.69;;;1.26;90.05
46846;BME280;33947;46.804;134.252;2022-11-20T08:18:14;101181.81;;;1.48;88.29
46846;BME280;33947;46.804;134.252;2022-11-20T08:21:35;101185.34;;;1.49;87.89
46846;BME280;33947;46.804;134.252;2022-11-20T08:24:40;101193.56;;;1.67;87.03
46846;BME280;33947;46.804;134.252;2022-11-20T08:27:45;101200.66;;;1.30;86.29
46846;BME280;33947;46.804;134.252;2022-11-20T08:30:49;101189.97;;;1.19;88.01
46846;BME280;33947;46.804;134.252;2022-11-20T08:33:54;101200.66;;;0.90;86.86
46846;BME280;33947;46.804;134.252;2022-11-20T08:36:59;101194.38;;;0.83;88.42
46846;BME280;33947;46.804;134.252;2022-11-20T08:40:03;101204.38;;;1.00;89.35
46846;BME280;33947;46.804;134.252;2022-11-20T08:43:08;101203.25;;;1.30;88.29
46846;BME280;33947;46.804;134.252;2022-11-20T08:46:12;101191.44;;;1.48;88.22
46846;BME280;33947;46.804;134.252;2022-11-20T08:49:17;101201.19;;;1.55;86.00
46846;BME280;33947;46.804;134.252;2022-11-20T08:52:23;101194.06;;;1.48;86.38
46846;BME280;33947;46.804;134.252;2022-11-20T08:55:27;101202.69;;;1.43;86.31
46846;BME280;33947;46.804;134.252;2022-11-20T08:58:31;101200.56;;;1.27;87.10
46846;BME280;33947;46.804;134.252;2022-11-20T09:01:56;101212.56;;;1.57;86.43
46846;BME280;33947;46.804;134.252;2022-11-20T09:05:01;101215.00;;;1.49;86.66
46846;BME280;33947;46.804;134.252;2022-11-20T09:08:06;101208.91;;;1.49;86.40
46846;BME280;33947;46.804;134.252;2022-11-20T09:11:10;101206.22;;;1.46;86.72
46846;BME280;33947;46.804;134.252;2022-11-20T09:14:14;101221.88;;;1.42;88.02
46846;BME280;33947;46.804;134.252;2022-11-20T09:17:19;101218.22;;;1.34;86.46
46846;BME280;33947;46.804;134.252;2022-11-20T09:20:24;101225.19;;;0.95;85.93
46846;BME280;33947;46.804;134.252;2022-11-20T09:23:34;101231.56;;;0.71;86.63
46846;BME280;33947;46.804;134.252;2022-11-20T09:26:39;101229.63;;;0.63;86.57
46846;BME280;33947;46.804;134.252;2022-11-20T09:29:44;101232.66;;;0.45;87.45
46846;BME280;33947;46.804;134.252;2022-11-20T09:32:48;101234.59;;;0.53;89.19
46846;BME280;33947;46.804;134.252;2022-11-20T09:35:53;101228.47;;;0.51;88.81
46846;BME280;33947;46.804;134.252;2022-11-20T09:38:57;101231.47;;;0.33;88.70
46846;BME280;33947;46.804;134.252;2022-11-20T09:48:48;101241.84;;;0.28;88.40
46846;BME280;33947;46.804;134.252;2022-11-20T09:51:58;101247.91;;;-0.05;87.85
46846;BME280;33947;46.804;134.252;2022-11-20T09:55:06;101242.81;;;0.00;91.39
46846;BME280;33947;46.804;134.252;2022-11-20T10:01:32;101249.84;;;0.03;88.57
46846;BME280;33947;46.804;134.252;2022-11-20T10:04:44;101254.84;;;0.27;89.83
46846;BME280;33947;46.804;134.252;2022-11-20T10:21:27;101266.69;;;-0.18;86.83
46846;BME280;33947;46.804;134.252;2022-11-20T10:31:33;101277.16;;;-0.47;88.50
46846;BME280;33947;46.804;134.252;2022-11-20T10:34:52;101279.28;;;-0.34;89.37
46846;BME280;33947;46.804;134.252;2022-11-20T10:38:02;101243.22;;;-0.76;88.96
46846;BME280;33947;46.804;134.252;2022-11-20T10:41:16;101279.31;;;-0.61;90.33
46846;BME280;33947;46.804;134.252;2022-11-20T10:44:31;101262.78;;;-0.62;89.71
46846;BME280;33947;46.804;134.252;2022-11-20T10:48:12;101268.72;;;-0.66;89.70
46846;BME280;33947;46.804;134.252;2022-11-20T11:01:18;101293.34;;;-0.57;89.05
46846;BME280;33947;46.804;134.252;2022-11-20T11:04:40;101276.56;;;-0.66;87.28
46846;BME280;33947;46.804;134.252;2022-11-20T11:07:51;101263.06;;;-0.81;87.67
46846;BME280;33947;46.804;134.252;2022-11-20T11:11:00;101283.81;;;-0.57;87.25
46846;BME280;33947;46.804;134.252;2022-11-20T11:14:14;101276.97;;;-0.81;86.78
46846;BME280;33947;46.804;134.252;2022-11-20T11:17:32;101285.16;;;-0.97;87.38
46846;BME280;33947;46.804;134.252;2022-11-20T11:20:37;101281.81;;;-0.93;87.57
46846;BME280;33947;46.804;134.252;2022-11-20T11:23:43;101271.94;;;-1.02;87.91
46846;BME280;33947;46.804;134.252;2022-11-20T11:26:58;101288.94;;;-0.88;87.23
46846;BME280;33947;46.804;134.252;2022-11-20T11:30:17;101291.69;;;-0.83;87.07
46846;BME280;33947;46.804;134.252;2022-11-20T11:36:34;101301.38;;;-0.79;84.98
46846;BME280;33947;46.804;134.252;2022-11-20T11:39:41;101311.13;;;-1.00;85.52
46846;BME280;33947;46.804;134.252;2022-11-20T11:42:57;101316.09;;;-1.08;86.37
46846;BME280;33947;46.804;134.252;2022-11-20T11:46:06;101284.78;;;-1.08;87.00
46846;BME280;33947;46.804;134.252;2022-11-20T11:49:16;101306.59;;;-0.79;85.58
46846;BME280;33947;46.804;134.252;2022-11-20T11:52:22;101304.13;;;-0.76;84.64
46846;BME280;33947;46.804;134.252;2022-11-20T11:55:55;101305.47;;;-0.87;84.48
46846;BME280;33947;46.804;134.252;2022-11-20T11:59:10;101306.03;;;-0.97;84.10
46846;BME280;33947;46.804;134.252;2022-11-20T12:06:12;101309.19;;;-1.58;85.75
46846;BME280;33947;46.804;134.252;2022-11-20T12:09:18;101313.00;;;-1.72;85.97
46846;BME280;33947;46.804;134.252;2022-11-20T12:12:36;101308.09;;;-1.65;86.64
46846;BME280;33947;46.804;134.252;2022-11-20T12:15:46;101301.66;;;-1.50;86.59
46846;BME280;33947;46.804;134.252;2022-11-20T12:18:52;101308.16;;;-1.37;86.64
46846;BME280;33947;46.804;134.252;2022-11-20T12:25:15;101300.41;;;-1.36;83.38
46846;BME280;33947;46.804;134.252;2022-11-20T12:31:38;101321.28;;;-1.60;84.70
46846;BME280;33947;46.804;134.252;2022-11-20T12:35:11;101324.38;;;-1.95;84.65
46846;BME280;33947;46.804;134.252;2022-11-20T12:46:17;101333.09;;;-1.94;85.98
46846;BME280;33947;46.804;134.252;2022-11-20T12:49:41;101329.44;;;-2.22;85.33
46846;BME280;33947;46.804;134.252;2022-11-20T12:53:10;101340.63;;;-2.25;85.67
46846;BME280;33947;46.804;134.252;2022-11-20T13:03:42;101358.91;;;-2.23;86.74
46846;BME280;33947;46.804;134.252;2022-11-20T13:07:12;101352.97;;;-2.19;87.22
46846;BME280;33947;46.804;134.252;2022-11-20T13:17:17;101370.31;;;-2.20;86.16
46846;BME280;33947;46.804;134.252;2022-11-20T13:20:25;101376.16;;;-2.25;86.13
46846;BME280;33947;46.804;134.252;2022-11-20T13:23:30;101340.41;;;-2.52;85.92
46846;BME280;33947;46.804;134.252;2022-11-20T13:26:34;101386.16;;;-2.36;85.16
46846;BME280;33947;46.804;134.252;2022-11-20T13:29:43;101397.78;;;-2.49;85.98
46846;BME280;33947;46.804;134.252;2022-11-20T13:33:07;101396.13;;;-2.47;86.47
46846;BME280;33947;46.804;134.252;2022-11-20T13:36:25;101389.06;;;-2.28;86.63
46846;BME280;33947;46.804;134.252;2022-11-20T13:39:34;101390.00;;;-2.26;85.24
46846;BME280;33947;46.804;134.252;2022-11-20T13:46:04;101392.72;;;-2.88;85.00
46846;BME280;33947;46.804;134.252;2022-11-20T14:02:27;101393.81;;;-2.83;86.81
46846;BME280;33947;46.804;134.252;2022-11-20T14:05:38;101397.66;;;-2.73;85.32
46846;BME280;33947;46.804;134.252;2022-11-20T14:08:46;101390.94;;;-2.89;84.72
46846;BME280;33947;46.804;134.252;2022-11-20T14:11:51;101403.00;;;-2.92;84.39
46846;BME280;33947;46.804;134.252;2022-11-20T14:14:55;101402.91;;;-3.14;83.81
46846;BME280;33947;46.804;134.252;2022-11-20T14:18:18;101406.66;;;-3.08;84.31
46846;BME280;33947;46.804;134.252;2022-11-20T14:21:28;101409.31;;;-3.06;83.77
46846;BME280;33947;46.804;134.252;2022-11-20T14:24:33;101408.53;;;-3.44;84.06
46846;BME280;33947;46.804;134.252;2022-11-20T14:27:40;101416.38;;;-3.43;84.66
46846;BME280;33947;46.804;134.252;2022-11-20T14:30:47;101411.00;;;-3.47;84.62
46846;BME280;33947;46.804;134.252;2022-11-20T14:33:54;101413.19;;;-3.57;84.73
46846;BME280;33947;46.804;134.252;2022-11-20T14:37:05;101419.53;;;-3.70;84.87
46846;BME280;33947;46.804;134.252;2022-11-20T14:40:30;101405.84;;;-3.85;84.42
46846;BME280;33947;46.804;134.252;2022-11-20T14:43:35;101417.50;;;-3.77;85.45
46846;BME280;33947;46.804;134.252;2022-11-20T14:46:42;101429.00;;;-3.90;84.56
46846;BME280;33947;46.804;134.252;2022-11-20T14:49:49;101436.09;;;-3.68;85.60
46846;BME280;33947;46.804;134.252;2022-11-20T14:52:59;101433.00;;;-3.79;84.82
46846;BME280;33947;46.804;134.252;2022-11-20T14:56:03;101435.03;;;-3.91;84.14
46846;BME280;33947;46.804;134.252;2022-11-20T14:59:09;101435.44;;;-3.82;84.70
46846;BME280;33947;46.804;134.252;2022-11-20T15:02:13;101442.06;;;-4.07;83.95
46846;BME280;33947;46.804;134.252;2022-11-20T15:05:21;101446.66;;;-3.83;84.58
46846;BME280;33947;46.804;134.252;2022-11-20T15:08:26;101434.91;;;-3.74;83.68
46846;BME280;33947;46.804;134.252;2022-11-20T15:11:33;101451.06;;;-3.80;82.19
46846;BME280;33947;46.804;134.252;2022-11-20T15:14:40;101441.06;;;-4.28;82.94
46846;BME280;33947;46.804;134.252;2022-11-20T15:17:45;101446.59;;;-4.39;83.50
46846;BME280;33947;46.804;134.252;2022-11-20T15:20:50;101441.41;;;-4.57;83.33
46846;BME280;33947;46.804;134.252;2022-11-20T15:23:54;101431.78;;;-4.59;84.58
46846;BME280;33947;46.804;134.252;2022-11-20T15:26:59;101448.59;;;-4.51;84.48
46846;BME280;33947;46.804;134.252;2022-11-20T15:30:16;101438.47;;;-4.46;84.02
46846;BME280;33947;46.804;134.252;2022-11-20T15:33:21;101431.03;;;-4.39;84.39
46846;BME280;33947;46.804;134.252;2022-11-20T15:36:25;101442.84;;;-4.27;84.12
46846;BME280;33947;46.804;134.252;2022-11-20T15:39:29;101442.75;;;-4.11;82.78
46846;BME280;33947;46.804;134.252;2022-11-20T15:42:34;101434.59;;;-4.37;82.17
46846;BME280;33947;46.804;134.252;2022-11-20T15:48:55;101452.38;;;-4.62;83.93
46846;BME280;33947;46.804;134.252;2022-11-20T15:52:00;101448.09;;;-4.44;83.12
46846;BME280;33947;46.804;134.252;2022-11-20T15:55:09;101444.09;;;-4.37;82.57
46846;BME280;33947;46.804;134.252;2022-11-20T15:58:14;101458.84;;;-4.36;81.73
46846;BME280;33947;46.804;134.252;2022-11-20T16:01:21;101454.16;;;-4.61;81.74
46846;BME280;33947;46.804;134.252;2022-11-20T16:04:26;101440.81;;;-4.69;81.79
46846;BME280;33947;46.804;134.252;2022-11-20T16:07:30;101453.53;;;-4.74;82.97
46846;BME280;33947;46.804;134.252;2022-11-20T16:10:35;101452.16;;;-4.49;82.52
46846;BME280;33947;46.804;134.252;2022-11-20T16:13:41;101448.53;;;-4.53;81.17
46846;BME280;33947;46.804;134.252;2022-11-20T16:17:03;101438.31;;;-4.68;81.05
46846;BME280;33947;46.804;134.252;2022-11-20T16:20:11;101450.16;;;-4.37;81.15
46846;BME280;33947;46.804;134.252;2022-11-20T16:23:16;101451.88;;;-4.19;79.87
46846;BME280;33947;46.804;134.252;2022-11-20T16:26:20;101446.16;;;-4.12;79.58
46846;BME280;33947;46.804;134.252;2022-11-20T16:29:25;101441.06;;;-4.10;78.89
46846;BME280;33947;46.804;134.252;2022-11-20T16:32:30;101447.19;;;-3.90;77.50
46846;BME280;33947;46.804;134.252;2022-11-20T16:35:35;101439.41;;;-3.90;78.26
46846;BME280;33947;46.804;134.252;2022-11-20T16:38:39;101436.66;;;-3.93;77.48
46846;BME280;33947;46.804;134.252;2022-11-20T16:41:45;101453.84;;;-3.77;76.76
46846;BME280;33947;46.804;134.252;2022-11-20T16:44:49;101418.72;;;-4.07;77.15
46846;BME280;33947;46.804;134.252;2022-11-20T16:47:53;101450.47;;;-3.74;77.54
46846;BME280;33947;46.804;134.252;2022-11-20T16:50:58;101453.06;;;-3.74;76.88
46846;BME280;33947;46.804;134.252;2022-11-20T16:54:04;101458.22;;;-3.56;76.48
46846;BME280;33947;46.804;134.252;2022-11-20T16:57:09;101461.06;;;-3.52;75.99
46846;BME280;33947;46.804;134.252;2022-11-20T17:00:14;101462.16;;;-3.46;75.97
46846;BME280;33947;46.804;134.252;2022-11-20T17:03:19;101460.09;;;-3.54;75.84
46846;BME280;33947;46.804;134.252;2022-11-20T17:06:26;101466.78;;;-3.59;75.49
46846;BME280;33947;46.804;134.252;2022-11-20T17:09:31;101466.56;;;-3.64;75.50
46846;BME280;33947;46.804;134.252;2022-11-20T17:12:35;101469.75;;;-3.69;74.97
46846;BME280;33947;46.804;134.252;2022-11-20T17:15:40;101474.94;;;-3.69;76.40
46846;BME280;33947;46.804;134.252;2022-11-20T17:18:45;101473.31;;;-3.67;75.18
46846;BME280;33947;46.804;134.252;2022-11-20T17:21:50;101475.50;;;-3.76;74.49
46846;BME280;33947;46.804;134.252;2022-11-20T17:24:54;101479.31;;;-3.68;74.45
46846;BME280;33947;46.804;134.252;2022-11-20T17:27:58;101467.09;;;-3.71;74.32
46846;BME280;33947;46.804;134.252;2022-11-20T17:31:08;101472.25;;;-4.27;74.34
46846;BME280;33947;46.804;134.252;2022-11-20T17:34:14;101474.03;;;-4.26;76.05
46846;BME280;33947;46.804;134.252;2022-11-20T17:37:18;101479.47;;;-4.21;76.21
46846;BME280;33947;46.804;134.252;2022-11-20T17:40:23;101474.75;;;-4.65;76.53
46846;BME280;33947;46.804;134.252;2022-11-20T17:43:29;101476.53;;;-4.80;76.72
46846;BME280;33947;46.804;134.252;2022-11-20T17:46:38;101453.94;;;-4.48;77.79